Time;durP1;ratioP1;P1;durP2;ratioP2;P2;SDS_P1;SDS_P2;PMS_P1;PMS_P2;Temp;Humidity;BMP_temperature;BMP_pressure;BME280_temperature;BME280_humidity;BME280_pressure;Samples;Min_cycle;Max_cycle;Signal;HPM_P1;HPM_P2
2022/01/28 00:01:37;;;;;;;12.10;7.80;;;;;;;0.99;90.30;97968.39;106216;1277;138099;-74
2022/01/28 00:04:13;;;;;;;10.50;6.50;;;;;;;0.99;90.45;97967.39;106065;1277;22559;-74
2022/01/28 00:06:40;;;;;;;15.40;7.80;;;;;;;0.99;90.65;97965.54;106313;1277;137431;-74
2022/01/28 00:09:08;;;;;;;15.90;8.60;;;;;;;0.98;90.62;97969.91;106401;1277;23698;-73
2022/01/28 00:11:35;;;;;;;15.70;8.20;;;;;;;0.97;90.42;97967.31;106196;1278;22584;-74
2022/01/28 00:38:52;;;;;;;14.80;8.30;;;;;;;1.01;90.78;97950.91;106635;1277;22705;-74
2022/01/28 00:41:19;;;;;;;13.20;7.50;;;;;;;1.02;90.76;97948.45;106396;1277;25243;-73
2022/01/28 00:43:46;;;;;;;12.90;8.10;;;;;;;1.05;90.75;97945.78;106051;1277;137555;-73
2022/01/28 00:46:14;;;;;;;12.20;8.30;;;;;;;1.07;90.81;97937.30;106335;1277;23175;-73
2022/01/28 00:48:41;;;;;;;15.90;8.60;;;;;;;1.06;90.67;97940.03;106196;1277;137459;-73
2022/01/28 00:51:11;;;;;;;14.10;8.40;;;;;;;1.07;90.55;97935.65;106337;1276;22637;-73
2022/01/28 00:53:38;;;;;;;14.30;7.70;;;;;;;1.10;90.59;97936.73;106012;1276;22606;-73
2022/01/28 00:56:06;;;;;;;12.70;7.30;;;;;;;1.11;90.50;97935.10;105923;1277;137957;-74
2022/01/28 00:58:33;;;;;;;12.00;7.70;;;;;;;1.13;90.61;97938.63;106245;1277;22586;-74
2022/01/28 01:01:01;;;;;;;13.40;8.60;;;;;;;1.15;90.47;97941.63;106197;1277;137551;-74
2022/01/28 01:03:28;;;;;;;15.60;8.80;;;;;;;1.16;90.24;97943.86;106407;1277;22552;-73
2022/01/28 01:05:55;;;;;;;11.70;7.20;;;;;;;1.19;90.28;97942.77;106150;1277;138350;-73
2022/01/28 01:08:22;;;;;;;10.50;6.90;;;;;;;1.22;90.17;97938.09;106374;1277;22541;-74
2022/01/28 01:10:52;;;;;;;13.90;7.80;;;;;;;1.25;90.11;97931.96;106220;1277;22998;-74
2022/01/28 01:13:19;;;;;;;;;;;;;;;1.28;89.99;97922.19;106190;1276;137405;-72
2022/01/28 01:15:51;;;;;;;11.10;6.40;;;;;;;1.28;89.93;97920.66;105960;1277;24229;-74
2022/01/28 01:18:24;;;;;;;13.20;7.30;;;;;;;1.28;89.61;97913.08;105812;1278;138468;-75
2022/01/28 01:23:25;;;;;;;11.40;7.30;;;;;;;1.31;89.39;97886.35;106248;1277;24259;-75
2022/01/28 01:26:06;;;;;;;12.00;7.80;;;;;;;1.33;89.35;97893.34;106326;1277;137571;-74
2022/01/28 01:28:37;;;;;;;12.90;7.80;;;;;;;1.33;89.30;97902.46;106130;1277;22586;-73
2022/01/28 01:31:07;;;;;;;13.20;7.30;;;;;;;1.34;89.34;97913.96;106112;1277;138068;-73
2022/01/28 01:33:41;;;;;;;10.80;6.50;;;;;;;1.36;89.16;97915.73;106138;1276;22590;-73
2022/01/28 01:36:08;;;;;;;10.30;6.10;;;;;;;1.37;89.09;97913.58;106545;1276;138070;-73
2022/01/28 01:38:38;;;;;;;9.40;6.30;;;;;;;1.38;89.11;97905.10;106041;1276;25264;-73
2022/01/28 01:41:12;;;;;;;10.60;7.30;;;;;;;1.35;89.11;97906.83;105852;1278;22545;-74
2022/01/28 01:54:16;;;;;;;10.40;6.70;;;;;;;1.36;89.09;97904.85;106263;1278;137770;-73
2022/01/28 01:56:43;;;;;;;10.80;6.10;;;;;;;1.35;89.01;97892.42;106555;1277;25263;-73
2022/01/28 01:59:11;;;;;;;9.90;5.60;;;;;;;1.35;88.79;97885.62;106424;1277;23838;-73
2022/01/28 02:01:40;;;;;;;8.40;5.00;;;;;;;1.35;88.67;97883.12;106808;1277;137292;-73
2022/01/28 02:04:08;;;;;;;9.70;6.20;;;;;;;1.33;88.58;97879.21;106853;1277;25926;-73
2022/01/28 02:06:36;;;;;;;10.30;6.30;;;;;;;1.30;88.43;97878.09;106136;1278;137298;-73
2022/01/28 02:09:04;;;;;;;6.70;5.10;;;;;;;1.28;88.34;97880.73;106623;1277;25314;-73
2022/01/28 02:11:31;;;;;;;9.00;6.30;;;;;;;1.29;88.04;97879.90;106274;1277;22574;-73
2022/01/28 02:13:59;;;;;;;7.80;5.00;;;;;;;1.29;87.75;97867.57;106119;1278;138139;-73
2022/01/28 02:16:26;;;;;;;8.20;4.80;;;;;;;1.29;87.77;97869.14;106363;1277;22569;-74
2022/01/28 02:18:55;;;;;;;8.20;5.20;;;;;;;1.27;87.81;97868.83;106048;1278;137262;-74
2022/01/28 02:21:23;;;;;;;8.20;4.90;;;;;;;1.26;87.78;97873.73;106324;1277;24374;-74
2022/01/28 02:23:57;;;;;;;8.80;5.80;;;;;;;1.24;87.86;97876.75;106674;1278;24344;-74
2022/01/28 02:26:24;;;;;;;8.70;5.60;;;;;;;1.25;87.60;97876.84;106911;1277;137919;-74
2022/01/28 02:28:55;;;;;;;9.90;5.20;;;;;;;1.27;87.56;97875.35;106454;1278;24258;-74
2022/01/28 02:31:26;;;;;;;9.30;5.20;;;;;;;1.27;87.77;97879.19;106544;1277;137342;-74
2022/01/28 02:33:56;;;;;;;8.00;5.10;;;;;;;1.28;87.46;97875.23;106190;1278;24371;-74
2022/01/28 02:36:25;;;;;;;9.70;5.80;;;;;;;1.28;87.58;97876.39;106197;1278;137838;-74
2022/01/28 02:38:54;;;;;;;7.20;4.90;;;;;;;1.31;87.46;97872.52;105929;1278;22723;-73
2022/01/28 02:41:24;;;;;;;9.60;5.30;;;;;;;1.33;87.33;97870.09;106253;1277;24358;-73
2022/01/28 02:46:40;;;;;;;9.30;5.50;;;;;;;1.35;87.28;97881.98;106116;1277;25364;-74
2022/01/28 02:49:10;;;;;;;7.00;5.20;;;;;;;1.36;87.20;97885.16;106213;1278;138674;-74
2022/01/28 02:51:38;;;;;;;7.30;5.20;;;;;;;1.37;86.83;97879.48;106164;1278;22575;-74
2022/01/28 02:54:18;;;;;;;9.20;5.30;;;;;;;1.36;86.83;97875.29;106118;1281;22544;-73
2022/01/28 02:56:51;;;;;;;9.10;4.90;;;;;;;1.35;86.67;97872.50;106042;1278;137075;-73
2022/01/28 02:59:19;;;;;;;7.50;5.30;;;;;;;1.33;86.85;97872.04;106207;1277;22576;-74
2022/01/28 03:01:46;;;;;;;10.50;5.50;;;;;;;1.32;86.66;97867.66;106070;1277;137791;-74
2022/01/28 03:04:36;;;;;;;7.20;4.40;;;;;;;1.33;86.69;97857.34;106036;1277;22546;-73
2022/01/28 03:07:00;;;;;;;6.60;4.60;;;;;;;1.34;86.40;97863.20;105949;1278;137673;-74
2022/01/28 03:09:46;;;;;;;7.20;4.10;;;;;;;1.33;86.13;97859.02;106078;1278;25523;-74
2022/01/28 03:12:17;;;;;;;7.30;4.00;;;;;;;1.32;85.99;97858.41;106322;1277;25464;-74
2022/01/28 03:22:47;;;;;;;6.60;3.80;;;;;;;1.32;85.32;97865.47;106335;1277;22623;-73
2022/01/28 03:25:15;;;;;;;6.20;3.50;;;;;;;1.34;85.24;97854.58;106360;1277;137362;-74
2022/01/28 03:30:13;;;;;;;5.20;3.60;;;;;;;1.39;85.29;97846.42;106125;1277;22642;-74
2022/01/28 03:32:40;;;;;;;6.00;3.20;;;;;;;1.43;85.32;97856.13;106220;1277;137295;-73
2022/01/28 03:35:09;;;;;;;3.90;2.60;;;;;;;1.45;85.06;97860.94;106398;1277;25605;-73
2022/01/28 03:37:37;;;;;;;5.00;2.90;;;;;;;1.47;84.81;97856.98;105913;1277;137234;-73
2022/01/28 03:40:07;;;;;;;5.10;3.40;;;;;;;1.48;84.27;97839.85;106238;1277;22781;-74
2022/01/28 03:42:35;;;;;;;7.00;3.50;;;;;;;1.51;83.79;97839.98;106391;1277;138397;-74
2022/01/28 03:45:06;;;;;;;6.60;3.20;;;;;;;1.55;83.59;97843.05;106272;1277;22952;-73
2022/01/28 03:47:33;;;;;;;6.00;3.30;;;;;;;1.57;83.43;97840.38;106215;1277;22733;-73
2022/01/28 03:50:00;;;;;;;4.30;2.60;;;;;;;1.60;83.22;97848.67;105997;1278;137671;-73
2022/01/28 03:52:27;;;;;;;6.10;2.80;;;;;;;1.61;83.16;97850.54;106263;1277;24312;-74
2022/01/28 03:54:54;;;;;;;4.80;3.00;;;;;;;1.63;83.00;97854.96;105949;1277;138015;-73
2022/01/28 03:57:21;;;;;;;4.40;2.80;;;;;;;1.64;83.07;97849.39;106186;1278;22587;-72
2022/01/28 03:59:48;;;;;;;5.00;3.40;;;;;;;1.66;83.12;97861.70;106170;1278;22572;-74
2022/01/28 04:02:20;;;;;;;4.20;2.50;;;;;;;1.66;83.02;97845.17;106197;1277;137189;-73
2022/01/28 04:12:47;;;;;;;6.50;3.30;;;;;;;1.65;83.08;97857.48;106050;1277;137327;-73
2022/01/28 04:18:00;;;;;;;5.10;3.10;;;;;;;1.63;83.17;97855.67;106056;1277;25537;-73
2022/01/28 04:20:27;;;;;;;4.30;2.70;;;;;;;1.63;83.13;97862.43;105688;1278;138239;-73
2022/01/28 04:22:54;;;;;;;4.50;2.50;;;;;;;1.64;83.32;97864.95;106242;1277;25628;-74
2022/01/28 04:25:22;;;;;;;5.10;2.70;;;;;;;1.63;83.35;97861.33;106132;1277;137427;-74
2022/01/28 04:27:49;;;;;;;4.50;2.30;;;;;;;1.62;83.49;97857.39;106111;1277;24328;-74
2022/01/28 04:30:16;;;;;;;5.20;3.10;;;;;;;1.59;83.75;97855.65;106050;1277;25358;-74
2022/01/28 04:32:46;;;;;;;5.50;2.90;;;;;;;1.55;84.04;97852.17;106066;1277;138050;-73
2022/01/28 04:35:13;;;;;;;6.10;2.40;;;;;;;1.54;84.26;97851.85;105998;1277;22544;-74
2022/01/28 04:40:40;;;;;;;4.40;2.30;;;;;;;1.49;84.47;97852.40;106041;1277;24291;-74
2022/01/28 04:45:46;;;;;;;7.20;3.20;;;;;;;1.45;84.59;97850.83;106079;1277;23938;-73
2022/01/28 04:58:55;;;;;;;4.60;2.80;;;;;;;1.32;85.83;97859.83;105941;1277;25496;-73
2022/01/28 05:15:10;;;;;;;4.50;2.70;;;;;;;1.05;87.56;97873.98;105921;1277;137458;-74
2022/01/28 05:28:31;;;;;;;5.80;3.10;;;;;;;0.87;88.67;97887.90;106149;1277;23945;-73
2022/01/28 05:30:58;;;;;;;4.90;2.50;;;;;;;0.84;88.94;97891.55;106228;1277;137454;-72
2022/01/28 05:33:25;;;;;;;5.50;3.80;;;;;;;0.80;88.93;97890.83;106175;1277;25366;-73
2022/01/28 05:35:52;;;;;;;5.10;3.10;;;;;;;0.77;89.27;97898.02;106240;1277;22832;-73
2022/01/28 05:38:20;;;;;;;5.70;2.50;;;;;;;0.73;89.57;97895.77;106013;1277;138083;-73
2022/01/28 05:40:47;;;;;;;6.40;2.70;;;;;;;0.70;89.57;97896.61;106110;1277;22569;-73
2022/01/28 05:43:14;;;;;;;3.20;2.60;;;;;;;0.67;89.57;97900.58;106226;1277;137162;-74
2022/01/28 05:45:42;;;;;;;5.70;3.50;;;;;;;0.64;89.90;97901.84;105914;1277;24213;-74
2022/01/28 05:48:11;;;;;;;6.60;2.80;;;;;;;0.61;89.92;97906.52;106034;1278;24425;-75
2022/01/28 05:50:38;;;;;;;6.40;3.00;;;;;;;0.59;90.21;97905.89;106145;1277;137653;-73
2022/01/28 05:53:06;;;;;;;7.40;2.90;;;;;;;0.57;90.12;97906.45;106096;1277;25641;-73
2022/01/28 05:55:34;;;;;;;4.60;3.00;;;;;;;0.55;90.25;97905.20;106140;1276;137685;-73
2022/01/28 05:58:02;;;;;;;3.40;2.50;;;;;;;0.52;90.45;97910.77;106179;1277;25263;-73
2022/01/28 06:00:29;;;;;;;5.70;3.40;;;;;;;0.48;90.74;97913.10;106213;1276;137587;-73
2022/01/28 06:02:57;;;;;;;5.60;2.90;;;;;;;0.45;90.67;97911.95;106247;1277;24428;-73
2022/01/28 06:05:30;;;;;;;5.30;3.60;;;;;;;0.43;91.02;97920.02;106206;1277;24644;-75
2022/01/28 06:07:58;;;;;;;5.60;3.40;;;;;;;0.41;91.11;97927.55;105980;1277;137831;-73
2022/01/28 06:10:26;;;;;;;4.90;2.40;;;;;;;0.41;91.16;97922.23;106047;1277;24421;-73
2022/01/28 06:12:53;;;;;;;6.20;3.60;;;;;;;0.39;91.34;97910.88;106019;1277;137522;-73
2022/01/28 06:15:21;;;;;;;7.20;3.60;;;;;;;0.37;91.46;97922.02;106256;1276;22720;-73
2022/01/28 06:17:48;;;;;;;7.10;3.20;;;;;;;0.35;91.37;97926.67;106224;1277;22563;-73
2022/01/28 06:20:19;;;;;;;6.80;3.10;;;;;;;0.35;91.26;97924.36;106144;1276;137996;-73
2022/01/28 06:22:48;;;;;;;6.60;3.60;;;;;;;0.35;91.84;97928.08;106137;1277;22545;-74
2022/01/28 06:25:16;;;;;;;6.10;3.20;;;;;;;0.34;91.65;97923.83;106203;1277;137816;-73
2022/01/28 06:27:44;;;;;;;9.40;4.40;;;;;;;0.32;91.86;97922.93;106067;1277;24324;-73
2022/01/28 06:30:13;;;;;;;6.60;3.90;;;;;;;0.32;91.93;97932.61;106106;1277;25660;-73
2022/01/28 06:32:40;;;;;;;6.10;3.00;;;;;;;0.32;92.07;97932.90;105818;1278;138526;-73
2022/01/28 06:35:08;;;;;;;3.80;2.90;;;;;;;0.35;91.95;97939.20;106081;1277;22764;-73
2022/01/28 06:37:41;;;;;;;5.10;2.70;;;;;;;0.38;92.30;97942.60;106272;1277;137851;-73
2022/01/28 06:40:13;;;;;;;5.70;3.20;;;;;;;0.40;92.41;97943.60;106116;1277;23423;-73
2022/01/28 06:42:40;;;;;;;4.10;2.70;;;;;;;0.42;92.40;97946.39;105892;1277;137755;-73
2022/01/28 06:45:08;;;;;;;4.20;2.80;;;;;;;0.45;92.49;97948.55;105967;1278;23193;-73
2022/01/28 06:47:35;;;;;;;3.90;2.40;;;;;;;0.48;92.48;97949.39;105945;1277;24249;-73
2022/01/28 06:50:09;;;;;;;5.10;2.70;;;;;;;0.50;92.62;97955.16;106379;1277;138102;-74
2022/01/28 06:52:38;;;;;;;6.70;2.50;;;;;;;0.52;92.39;97962.84;106663;1277;25312;-75
2022/01/28 06:55:06;;;;;;;6.60;3.30;;;;;;;0.52;92.56;97959.70;106248;1277;137812;-74
2022/01/28 06:57:34;;;;;;;5.30;3.60;;;;;;;0.54;92.61;97964.20;106600;1276;22556;-74
2022/01/28 07:00:03;;;;;;;5.20;3.40;;;;;;;0.55;92.57;97959.20;105948;1277;24078;-75
2022/01/28 07:02:30;;;;;;;5.50;2.80;;;;;;;0.58;92.36;97961.56;106334;1277;139176;-74
2022/01/28 07:04:59;;;;;;;4.80;2.50;;;;;;;0.60;92.38;97960.79;106309;1277;22675;-76
2022/01/28 07:07:27;;;;;;;6.80;3.50;;;;;;;0.61;92.51;97967.23;106068;1276;137258;-73
2022/01/28 07:09:55;;;;;;;7.80;3.60;;;;;;;0.61;92.30;97968.18;106328;1277;30881;-74
2022/01/28 07:12:22;;;;;;;6.10;3.40;;;;;;;0.61;92.52;97967.85;105971;1275;137949;-72
2022/01/28 07:14:49;;;;;;;6.90;3.80;;;;;;;0.61;92.32;97974.61;106130;1276;23176;-72
2022/01/28 07:17:17;;;;;;;5.40;3.00;;;;;;;0.62;92.22;97970.54;106238;1277;22573;-72
2022/01/28 07:19:44;;;;;;;10.50;3.90;;;;;;;0.64;92.37;97976.33;106001;1276;137452;-73
2022/01/28 07:22:11;;;;;;;7.70;4.60;;;;;;;0.66;92.53;97977.59;106434;1277;23179;-74
2022/01/28 07:24:39;;;;;;;10.70;4.70;;;;;;;0.69;92.37;97973.57;105927;1277;138378;-73
2022/01/28 07:27:06;;;;;;;6.90;4.20;;;;;;;0.72;92.34;97977.14;106124;1277;22572;-73
2022/01/28 07:29:35;;;;;;;11.30;4.50;;;;;;;0.76;92.12;97981.95;106611;1277;23909;-73
2022/01/28 07:32:03;;;;;;;;;;;;;;;0.81;92.30;97976.38;105902;1277;138096;-73
2022/01/28 07:34:31;;;;;;;9.30;3.80;;;;;;;0.85;91.87;97981.19;106095;1277;23309;-73
2022/01/28 07:37:00;;;;;;;10.00;4.40;;;;;;;0.87;91.96;97978.74;106041;1277;137236;-73
2022/01/28 07:39:28;;;;;;;11.10;4.60;;;;;;;0.90;91.76;97980.34;106512;1277;24258;-73
2022/01/28 07:41:57;;;;;;;8.00;4.60;;;;;;;0.94;91.56;97981.67;106260;1277;24267;-73
2022/01/28 07:44:24;;;;;;;12.40;5.30;;;;;;;0.97;91.66;97982.15;105886;1276;138514;-73
2022/01/28 07:46:52;;;;;;;10.10;4.10;;;;;;;1.00;91.38;97982.30;105956;1277;24428;-73
2022/01/28 07:49:19;;;;;;;5.80;3.70;;;;;;;1.04;91.43;97979.69;106608;1277;140739;-73
2022/01/28 07:51:48;;;;;;;7.80;4.00;;;;;;;1.07;91.36;97987.73;106200;1277;25255;-73
2022/01/28 07:54:15;;;;;;;8.30;3.40;;;;;;;1.10;90.98;97978.90;106029;1277;22567;-73
2022/01/28 07:56:45;;;;;;;9.20;4.00;;;;;;;1.13;90.87;97979.00;106033;1277;137840;-73
2022/01/28 07:59:13;;;;;;;7.40;4.40;;;;;;;1.17;90.66;97970.11;106229;1277;22559;-73
2022/01/28 08:01:40;;;;;;;8.80;5.40;;;;;;;1.20;90.31;97986.52;106166;1277;137052;-73
2022/01/28 08:04:07;;;;;;;9.60;3.30;;;;;;;1.21;90.36;97982.14;106418;1277;25432;-73
2022/01/28 08:06:35;;;;;;;14.00;5.00;;;;;;;1.22;90.19;97983.40;106236;1277;139119;-73
2022/01/28 08:09:03;;;;;;;7.80;3.70;;;;;;;1.23;90.33;97984.34;106078;1277;23966;-73
2022/01/28 08:11:30;;;;;;;10.10;4.30;;;;;;;1.25;90.35;97991.76;105773;1277;23103;-73
2022/01/28 08:13:58;;;;;;;9.80;3.80;;;;;;;1.29;90.30;97997.09;105971;1277;137713;-73
2022/01/28 08:16:26;;;;;;;8.70;3.30;;;;;;;1.30;90.07;97992.10;106341;1277;26500;-73
2022/01/28 08:18:53;;;;;;;10.80;4.30;;;;;;;1.29;90.16;98001.34;105964;1277;138087;-73
2022/01/28 08:21:20;;;;;;;9.00;4.50;;;;;;;1.30;90.15;98006.59;106295;1277;30557;-73
2022/01/28 08:23:48;;;;;;;8.50;3.30;;;;;;;1.30;90.29;98011.88;106105;1277;26700;-74
2022/01/28 08:26:16;;;;;;;10.80;3.60;;;;;;;1.29;90.22;98012.73;106107;1277;137465;-73
2022/01/28 08:28:47;;;;;;;7.70;3.50;;;;;;;1.26;90.15;98013.91;106382;1277;22614;-73
2022/01/28 08:31:15;;;;;;;11.60;4.30;;;;;;;1.23;90.30;98014.27;106096;1277;137508;-74
2022/01/28 08:33:42;;;;;;;11.50;4.20;;;;;;;1.23;90.56;98017.77;106534;1277;24212;-73
2022/01/28 08:36:11;;;;;;;7.70;3.20;;;;;;;1.23;90.40;98017.61;106172;1277;24635;-73
2022/01/28 08:38:44;;;;;;;10.90;3.00;;;;;;;1.23;90.51;98026.64;106024;1277;136950;-75
2022/01/28 08:41:13;;;;;;;13.40;4.40;;;;;;;1.21;90.47;98031.87;106343;1277;22986;-73
2022/01/28 08:43:41;;;;;;;11.80;3.50;;;;;;;1.21;90.71;98032.20;105996;1277;138307;-73
2022/01/28 08:46:09;;;;;;;9.80;3.20;;;;;;;1.24;90.74;98035.48;106260;1277;22720;-73
2022/01/28 08:48:37;;;;;;;10.70;3.80;;;;;;;1.27;90.69;98033.64;106270;1277;138307;-74
2022/01/28 08:51:04;;;;;;;10.30;3.80;;;;;;;1.29;90.43;98045.50;106236;1276;23500;-74
2022/01/28 08:53:33;;;;;;;10.30;3.80;;;;;;;1.31;90.52;98050.45;106279;1276;23177;-73
2022/01/28 08:56:00;;;;;;;8.70;3.30;;;;;;;1.33;90.58;98052.84;106179;1276;138766;-73
2022/01/28 08:58:28;;;;;;;9.90;3.40;;;;;;;1.36;90.28;98059.86;106123;1276;25261;-73
2022/01/28 09:00:55;;;;;;;9.90;3.90;;;;;;;1.38;90.30;98064.95;105888;1277;137878;-73
2022/01/28 09:03:22;;;;;;;11.30;3.80;;;;;;;1.37;90.41;98065.36;106020;1277;25520;-73
2022/01/28 09:05:50;;;;;;;9.40;4.10;;;;;;;1.35;90.04;98068.41;105905;1277;23310;-73
2022/01/28 09:08:17;;;;;;;12.30;4.20;;;;;;;1.32;90.10;98079.40;105892;1277;138181;-74
2022/01/28 09:10:56;;;;;;;11.20;4.70;;;;;;;1.31;90.36;98084.75;105887;1277;22567;-75
2022/01/28 09:13:25;;;;;;;9.20;3.90;;;;;;;1.31;90.56;98081.91;105849;1278;138442;-73
2022/01/28 09:15:55;;;;;;;10.10;4.60;;;;;;;1.30;90.51;98089.54;105978;1276;25424;-73
2022/01/28 09:18:23;;;;;;;13.20;4.80;;;;;;;1.27;90.43;98100.95;105798;1276;138549;-73
2022/01/28 09:20:51;;;;;;;9.50;4.60;;;;;;;1.25;90.33;98104.69;106219;1277;25317;-73
2022/01/28 09:23:19;;;;;;;9.50;4.90;;;;;;;1.24;90.47;98104.27;106084;1277;24083;-73
2022/01/28 09:25:48;;;;;;;8.50;4.40;;;;;;;1.22;90.49;98110.57;105995;1277;137844;-73
2022/01/28 09:28:15;;;;;;;10.70;4.70;;;;;;;1.20;90.42;98118.17;106115;1277;22729;-73
2022/01/28 09:30:43;;;;;;;13.30;5.10;;;;;;;1.19;90.53;98116.77;106020;1277;138312;-73
2022/01/28 09:33:11;;;;;;;12.60;4.30;;;;;;;1.18;90.43;98119.73;105834;1276;24376;-73
2022/01/28 09:35:41;;;;;;;9.30;3.80;;;;;;;1.16;90.52;98117.95;106582;1276;22702;-73
2022/01/28 09:38:10;;;;;;;9.30;4.00;;;;;;;1.14;90.56;98123.41;105889;1276;137592;-73
2022/01/28 09:40:37;;;;;;;8.80;5.40;;;;;;;1.12;90.59;98122.19;106270;1276;22534;-73
2022/01/28 09:43:07;;;;;;;8.60;4.90;;;;;;;1.12;90.59;98124.50;105713;1277;138464;-74
2022/01/28 09:45:36;;;;;;;15.10;5.00;;;;;;;1.14;90.72;98121.92;106006;1276;23089;-73
2022/01/28 09:48:04;;;;;;;12.40;4.50;;;;;;;1.17;90.64;98122.14;106542;1277;22582;-73
2022/01/28 09:50:34;;;;;;;10.60;4.70;;;;;;;1.18;90.74;98125.59;106027;1277;137663;-73
2022/01/28 09:53:01;;;;;;;;;;;;;;;1.17;90.54;98121.74;106065;1277;22779;-73
2022/01/28 09:55:28;;;;;;;11.00;5.60;;;;;;;1.19;90.56;98127.04;105810;1277;370391;-73
2022/01/28 09:57:59;;;;;;;11.30;6.60;;;;;;;1.20;90.63;98124.93;106120;1277;23632;-73
2022/01/28 10:00:28;;;;;;;9.80;5.20;;;;;;;1.18;90.57;98125.41;106233;1277;137890;-74
2022/01/28 10:02:59;;;;;;;10.00;4.80;;;;;;;1.18;90.69;98127.98;106431;1274;22611;-73
2022/01/28 10:05:28;;;;;;;11.80;5.60;;;;;;;1.16;90.63;98124.37;106307;1277;22559;-73
2022/01/28 10:08:23;;;;;;;12.80;5.40;;;;;;;1.16;90.72;98124.75;106185;1277;138217;-73
2022/01/28 10:11:12;;;;;;;15.50;6.80;;;;;;;1.13;90.74;98134.37;106123;1277;24343;-73
2022/01/28 10:13:54;;;;;;;13.80;5.90;;;;;;;1.10;90.81;98139.98;106072;1277;137647;-73
2022/01/28 10:16:29;;;;;;;9.50;4.70;;;;;;;1.04;90.81;98140.73;106201;1277;23953;-73
2022/01/28 10:18:59;;;;;;;10.00;6.20;;;;;;;0.99;90.84;98150.98;106064;1277;138515;-73
2022/01/28 10:21:36;;;;;;;9.90;5.90;;;;;;;0.96;91.02;98150.71;106280;1277;24283;-73
2022/01/28 10:24:22;;;;;;;10.40;5.60;;;;;;;0.94;91.29;98149.63;106382;1277;30407;-73
2022/01/28 10:27:10;;;;;;;9.70;6.20;;;;;;;0.93;91.12;98154.90;105846;1277;137516;-73
2022/01/28 10:30:05;;;;;;;10.70;6.30;;;;;;;0.88;91.10;98152.56;106129;1277;22568;-74
2022/01/28 10:32:35;;;;;;;10.70;7.00;;;;;;;0.86;91.35;98156.55;106113;1277;138261;-73
2022/01/28 10:35:03;;;;;;;11.30;5.70;;;;;;;0.87;91.44;98160.48;106089;1277;22572;-73
2022/01/28 10:37:32;;;;;;;10.70;6.20;;;;;;;0.88;91.18;98159.70;105784;1277;137826;-73
2022/01/28 10:40:09;;;;;;;11.70;6.00;;;;;;;0.89;91.41;98167.97;106165;1277;25220;-73
2022/01/28 10:42:40;;;;;;;11.00;7.30;;;;;;;0.88;91.31;98164.13;106120;1277;138215;-73
2022/01/28 10:45:11;;;;;;;10.40;6.20;;;;;;;0.89;91.53;98166.29;106027;1277;22569;-73
2022/01/28 10:47:43;;;;;;;11.50;7.40;;;;;;;0.93;91.50;98168.84;106040;1277;23058;-74
2022/01/28 10:50:33;;;;;;;10.70;6.80;;;;;;;0.99;91.42;98174.29;106378;1276;137826;-73
2022/01/28 10:53:12;;;;;;;13.10;6.30;;;;;;;0.99;91.36;98176.15;106024;1277;25301;-74
2022/01/28 10:55:54;;;;;;;13.80;7.40;;;;;;;0.99;91.30;98180.36;106037;1277;137945;-73
2022/01/28 10:58:24;;;;;;;14.10;7.30;;;;;;;0.98;91.19;98182.48;106298;1277;22582;-73
2022/01/28 11:00:54;;;;;;;8.90;6.10;;;;;;;0.99;91.48;98189.14;106214;1277;138463;-74
2022/01/28 11:03:27;;;;;;;;;;;;;;;0.97;91.44;98187.55;106070;1277;22518;-73
2022/01/28 11:06:01;;;;;;;8.70;6.00;;;;;;;0.95;91.38;98191.53;105988;1277;25392;-73
2022/01/28 11:08:30;;;;;;;16.10;7.20;;;;;;;0.91;91.67;98193.48;105953;1277;137517;-73
2022/01/28 11:11:00;;;;;;;11.60;7.50;;;;;;;0.89;91.62;98194.57;106076;1277;23178;-73
2022/01/28 11:13:29;;;;;;;12.10;7.60;;;;;;;0.89;91.82;98194.93;106102;1277;137957;-73
2022/01/28 11:15:57;;;;;;;10.40;5.70;;;;;;;0.89;91.83;98195.30;105963;1277;25271;-73
2022/01/28 11:18:26;;;;;;;12.00;6.80;;;;;;;0.89;91.79;98202.45;105898;1277;25429;-73
2022/01/28 11:21:04;;;;;;;17.20;8.30;;;;;;;0.89;91.97;98205.33;105994;1277;137910;-73
2022/01/28 11:24:08;;;;;;;19.40;7.90;;;;;;;0.89;92.02;98209.54;106251;1277;22633;-73
2022/01/28 11:26:38;;;;;;;14.60;8.00;;;;;;;0.90;92.17;98208.15;106067;1276;138442;-75
2022/01/28 11:29:20;;;;;;;13.80;6.70;;;;;;;0.93;92.25;98207.65;106000;1277;22548;-74
2022/01/28 11:31:51;;;;;;;14.90;7.00;;;;;;;0.98;92.47;98215.70;105915;1277;137600;-76
2022/01/28 11:34:26;;;;;;;14.70;8.60;;;;;;;1.09;93.19;98215.16;106136;1277;22699;-73
2022/01/28 11:36:57;;;;;;;13.70;6.90;;;;;;;1.14;92.20;98221.19;105807;1277;138696;-74
2022/01/28 11:39:35;;;;;;;13.80;7.00;;;;;;;1.15;91.96;98214.09;106098;1277;22541;-74
2022/01/28 11:42:09;;;;;;;12.60;6.80;;;;;;;1.15;91.91;98225.73;105996;1277;24313;-74
2022/01/28 11:44:51;;;;;;;13.30;7.00;;;;;;;1.11;91.86;98222.73;105905;1277;138070;-74
2022/01/28 11:47:41;;;;;;;19.70;8.50;;;;;;;1.09;92.18;98225.39;105904;1277;22612;-74
2022/01/28 11:50:09;;;;;;;;;;;;;;;1.09;91.99;98227.65;105845;1277;138596;-73
2022/01/28 11:52:45;;;;;;;15.50;7.20;;;;;;;1.10;91.96;98231.55;105885;1277;22612;-73
2022/01/28 11:55:23;;;;;;;11.60;6.80;;;;;;;1.10;92.14;98235.11;105955;1276;138101;-73
2022/01/28 11:58:13;;;;;;;15.30;7.50;;;;;;;1.11;92.27;98238.11;106124;1276;26511;-74
2022/01/28 12:00:47;;;;;;;18.80;8.50;;;;;;;1.13;92.09;98239.17;106068;1276;138049;-74
2022/01/28 12:03:22;;;;;;;17.70;7.20;;;;;;;1.16;92.58;98240.10;105996;1276;23313;-74
2022/01/28 12:05:52;;;;;;;11.80;6.70;;;;;;;1.20;92.15;98240.80;106144;1277;22590;-73
2022/01/28 12:08:20;;;;;;;14.10;7.40;;;;;;;1.24;92.16;98244.32;106029;1277;137673;-74
2022/01/28 12:10:50;;;;;;;13.10;7.60;;;;;;;1.28;92.34;98241.84;105910;1277;22577;-73
2022/01/28 12:13:29;;;;;;;10.90;6.40;;;;;;;1.29;92.10;98246.52;105811;1277;137652;-74
2022/01/28 12:16:01;;;;;;;12.80;7.00;;;;;;;1.29;91.98;98247.72;106027;1277;22569;-74
2022/01/28 12:18:52;;;;;;;14.20;7.10;;;;;;;1.30;91.96;98251.93;105893;1277;24374;-74
2022/01/28 12:21:37;;;;;;;12.10;6.30;;;;;;;1.32;92.03;98253.64;106021;1277;22563;-75
2022/01/28 12:24:20;;;;;;;11.90;6.80;;;;;;;1.33;91.85;98253.66;106035;1277;22745;-73
2022/01/28 12:27:06;;;;;;;12.10;6.50;;;;;;;1.33;91.89;98257.78;105781;1277;137622;-73
2022/01/28 12:29:47;;;;;;;14.50;7.20;;;;;;;1.32;91.72;98255.41;106111;1277;25330;-73
2022/01/28 12:32:22;;;;;;;12.90;7.90;;;;;;;1.32;91.90;98258.64;106195;1277;138099;-74
2022/01/28 12:34:50;;;;;;;11.40;5.80;;;;;;;1.35;91.90;98263.99;106075;1277;25527;-73
2022/01/28 12:37:22;;;;;;;13.90;7.60;;;;;;;1.36;91.86;98266.39;105627;1277;137914;-73
2022/01/28 12:40:03;;;;;;;12.40;7.00;;;;;;;1.34;91.86;98266.96;106029;1277;22569;-73
2022/01/28 12:42:33;;;;;;;14.80;8.90;;;;;;;1.33;91.93;98270.66;106148;1277;24243;-74
2022/01/28 12:45:01;;;;;;;12.70;7.70;;;;;;;1.35;92.01;98276.00;106092;1276;138052;-75
2022/01/28 12:47:33;;;;;;;12.90;6.90;;;;;;;1.36;91.87;98280.39;105809;1277;22627;-74
2022/01/28 12:50:03;;;;;;;10.70;5.90;;;;;;;1.35;91.76;98278.31;105930;1277;138611;-73
2022/01/28 12:52:34;;;;;;;11.10;7.00;;;;;;;1.32;91.52;98281.27;106268;1275;22544;-74
2022/01/28 12:55:04;;;;;;;12.70;6.90;;;;;;;1.30;91.45;98289.15;106021;1277;138265;-73
2022/01/28 12:57:31;;;;;;;16.30;8.20;;;;;;;1.27;91.46;98294.48;106639;1277;22642;-73
2022/01/28 12:59:59;;;;;;;13.40;7.20;;;;;;;1.27;91.58;98298.48;106218;1277;22732;-72
2022/01/28 13:02:34;;;;;;;11.20;5.70;;;;;;;1.26;91.70;98298.61;106090;1277;137960;-74
2022/01/28 13:10:26;;;;;;;9.90;5.90;;;;;;;1.23;91.91;98308.89;105975;1276;22570;-73
2022/01/28 13:13:09;;;;;;;8.50;5.20;;;;;;;1.26;92.15;98314.45;106434;1276;23928;-73
2022/01/28 13:15:38;;;;;;;8.40;4.60;;;;;;;1.29;92.09;98318.05;105987;1275;137196;-73
2022/01/28 13:18:07;;;;;;;9.00;4.20;;;;;;;1.30;91.99;98319.31;106212;1277;22626;-73
2022/01/28 13:20:38;;;;;;;6.70;3.40;;;;;;;1.30;91.86;98319.63;105937;1277;138213;-73
2022/01/28 13:23:08;;;;;;;5.40;3.10;;;;;;;1.31;91.69;98327.47;106074;1277;22563;-73
2022/01/28 13:25:36;;;;;;;8.30;3.30;;;;;;;1.31;91.58;98331.23;106063;1277;138455;-73
2022/01/28 13:28:11;;;;;;;7.40;3.20;;;;;;;1.32;91.44;98333.51;106022;1277;22585;-73
2022/01/28 13:30:41;;;;;;;8.00;3.60;;;;;;;1.36;91.50;98341.68;106588;1274;23578;-75